Details From EPPO - LAWICA
To EPKT - PYRZOWICE
Flight Number -
Tags generated
Created
Modified
Stats Distance 144 nm / 267 km
Max Altitude 17,200 ft / 5,243 m
Waypoints 3
Social Downloads 0
Likes 0
Share VATSIM

Download

Looking for another format? Having issues loading an existing format? Contact us
Advertisement - Login to hide

Notes

Basic altitude profile: - Ascent Rate: 2500ft/min - Ascent Speed: 250kts - Cruise Altitude: 35000ft - Cruise Speed: 420kts - Descent Rate: 1500ft/min - Descent Speed: 250kts Options: - Use NATs: yes - Use PACOTS: yes - Use low airways: yes - Use high airways: yes

Route

EPPO BADNO EPKT

ID Type Via Altitude Latitude Longitude Leg Dist Tot Dist Heading (true) Name
O EPPO APT - 0 ft / 0 m 52.42157˚ 16.82355˚ - 0 nm - LAWICA
BADNO FIX - 17,200 ft / 5,243 m 51.75000˚ 17.67833˚ 51 nm 51 nm 142° / 142° -
O EPKT APT - 0 ft / 0 m 50.47426˚ 19.07436˚ 92 nm 144 nm 145° / 146° PYRZOWICE

Altitude Profile

Advertisement - Login to hide

EPPO

Details ICAO EPPO (POZ)
Name LAWICA
Region Poland
Timezone Europe/Warsaw (UTC+1.0)
Stats Elevation 308 ft / 94 m (AMSL)
Location 52.421566° 16.823549°
Runways 1
Magnetic Variation 4.735° E

METAR

EPPO 140630Z 18011KT 9999 BKN005 OVC025 01/00 Q0989 R10/29//95

Decode

TAF

TAF EPPO 140520Z 1406/1506 18012KT 9999 BKN020 TEMPO 1406/1412 21015G25KT 2000 SHRASN BKN004 BKN010CB BECMG 1412/1414 24015G30KT PROB40 TEMPO 1412/1423 4000 SHRA BKN006 BKN015CB BECMG 1423/1501 19005KT SCT015

Decode

Departure Runways

ID Width Length Bearing (true) Bearing (mag) Surface Threshold Offset Overrun Length
11 164 ft / 50 m 8,153 ft / 2,485 m 107.57° 102.83° Asphalt 0 ft / 0 m 0 ft / 0 m
29 164 ft / 50 m 8,153 ft / 2,485 m 287.59° 282.85° Asphalt 0 ft / 0 m 0 ft / 0 m

EPKT

Details ICAO EPKT (KTW)
Name PYRZOWICE
Region Poland
Timezone Europe/Warsaw (UTC+1.0)
Stats Elevation 995 ft / 303 m (AMSL)
Location 50.474263° 19.074356°
Runways 1
Magnetic Variation 5.085° E

METAR

EPKT 140630Z 19011KT CAVOK 03/M04 Q0995

Decode

TAF

TAF EPKT 140530Z 1406/1506 18016G26KT CAVOK PROB30 TEMPO 1406/1408 3000 SN BKN014 BECMG 1407/1409 22022G37KT TEMPO 1411/1415 BKN017TCU BECMG 1414/1416 21016G27KT BECMG 1419/1422 20014KT BECMG 1500/1503 BKN014

Decode

Destination Runways

ID Width Length Bearing (true) Bearing (mag) Surface Threshold Offset Overrun Length
09 195 ft / 59 m 9,156 ft / 2,791 m 90.18° 85.10° Concrete 0 ft / 0 m 0 ft / 0 m
27 195 ft / 59 m 9,156 ft / 2,791 m 270.22° 265.14° Concrete 0 ft / 0 m 0 ft / 0 m

Approach Navaids

Runway Type Ident Frequency Range Bearing (true) Bearing (mag) Slope Elevation
27 Localiser KAT 109.90 MHz 18 nm / 33 km 270.18° 265.09° - 995 ft / 303 m (AMSL)
27 Glidescope KAT 109.90 MHz 10 nm / 19 km 270.20° 265.12° 3.20° 995 ft / 303 m (AMSL)

Popular Alternatives